sensor_id;sensor_type;location;lat;lon;timestamp;P1;durP1;ratioP1;P2;durP2;ratioP2
43146;SDS011;28752;48.266;7.402;2022-12-18T00:01:12;60.25;;;23.25;;
43146;SDS011;28752;48.266;7.402;2022-12-18T00:04:11;68.20;;;26.48;;
43146;SDS011;28752;48.266;7.402;2022-12-18T00:06:43;73.03;;;28.02;;
43146;SDS011;28752;48.266;7.402;2022-12-18T00:09:09;58.60;;;21.92;;
43146;SDS011;28752;48.266;7.402;2022-12-18T00:11:35;66.25;;;23.90;;
43146;SDS011;28752;48.266;7.402;2022-12-18T00:14:00;53.73;;;20.27;;
43146;SDS011;28752;48.266;7.402;2022-12-18T00:16:26;50.80;;;19.02;;
43146;SDS011;28752;48.266;7.402;2022-12-18T00:18:54;55.35;;;21.27;;
43146;SDS011;28752;48.266;7.402;2022-12-18T00:21:21;49.67;;;20.02;;
43146;SDS011;28752;48.266;7.402;2022-12-18T00:23:47;49.67;;;20.40;;
43146;SDS011;28752;48.266;7.402;2022-12-18T00:26:19;48.38;;;20.13;;
43146;SDS011;28752;48.266;7.402;2022-12-18T00:28:47;49.38;;;19.65;;
43146;SDS011;28752;48.266;7.402;2022-12-18T00:31:15;48.35;;;18.92;;
43146;SDS011;28752;48.266;7.402;2022-12-18T00:33:43;46.92;;;18.80;;
43146;SDS011;28752;48.266;7.402;2022-12-18T00:36:13;44.83;;;17.83;;
43146;SDS011;28752;48.266;7.402;2022-12-18T00:38:39;47.00;;;19.15;;
43146;SDS011;28752;48.266;7.402;2022-12-18T00:41:05;48.70;;;17.48;;
43146;SDS011;28752;48.266;7.402;2022-12-18T00:43:32;47.70;;;19.02;;
43146;SDS011;28752;48.266;7.402;2022-12-18T00:45:57;46.83;;;19.83;;
43146;SDS011;28752;48.266;7.402;2022-12-18T00:48:24;46.08;;;18.67;;
43146;SDS011;28752;48.266;7.402;2022-12-18T00:50:49;38.30;;;17.43;;
43146;SDS011;28752;48.266;7.402;2022-12-18T00:53:15;40.50;;;18.90;;
43146;SDS011;28752;48.266;7.402;2022-12-18T00:55:41;41.85;;;18.23;;
43146;SDS011;28752;48.266;7.402;2022-12-18T01:00:33;42.55;;;17.20;;
43146;SDS011;28752;48.266;7.402;2022-12-18T01:02:59;41.70;;;16.27;;
43146;SDS011;28752;48.266;7.402;2022-12-18T01:05:24;44.80;;;17.90;;
43146;SDS011;28752;48.266;7.402;2022-12-18T01:07:50;48.72;;;20.00;;
43146;SDS011;28752;48.266;7.402;2022-12-18T01:10:15;48.30;;;18.73;;
43146;SDS011;28752;48.266;7.402;2022-12-18T01:12:41;50.90;;;19.80;;
43146;SDS011;28752;48.266;7.402;2022-12-18T01:15:06;55.13;;;20.13;;
43146;SDS011;28752;48.266;7.402;2022-12-18T01:17:32;52.47;;;18.50;;
43146;SDS011;28752;48.266;7.402;2022-12-18T01:19:58;65.03;;;20.70;;
43146;SDS011;28752;48.266;7.402;2022-12-18T01:22:23;57.37;;;19.93;;
43146;SDS011;28752;48.266;7.402;2022-12-18T01:24:49;51.65;;;19.35;;
43146;SDS011;28752;48.266;7.402;2022-12-18T01:27:14;49.47;;;19.40;;
43146;SDS011;28752;48.266;7.402;2022-12-18T01:29:39;46.38;;;19.27;;
43146;SDS011;28752;48.266;7.402;2022-12-18T01:32:05;51.60;;;19.07;;
43146;SDS011;28752;48.266;7.402;2022-12-18T01:34:30;51.77;;;19.63;;
43146;SDS011;28752;48.266;7.402;2022-12-18T01:36:56;50.53;;;17.40;;
43146;SDS011;28752;48.266;7.402;2022-12-18T01:39:21;55.03;;;21.08;;
43146;SDS011;28752;48.266;7.402;2022-12-18T01:41:46;51.87;;;19.37;;
43146;SDS011;28752;48.266;7.402;2022-12-18T01:47:22;51.25;;;19.25;;
43146;SDS011;28752;48.266;7.402;2022-12-18T01:49:52;56.63;;;19.40;;
43146;SDS011;28752;48.266;7.402;2022-12-18T01:52:18;47.05;;;18.63;;
43146;SDS011;28752;48.266;7.402;2022-12-18T01:54:45;55.33;;;21.27;;
43146;SDS011;28752;48.266;7.402;2022-12-18T01:57:11;54.85;;;20.45;;
43146;SDS011;28752;48.266;7.402;2022-12-18T01:59:37;57.00;;;20.63;;
43146;SDS011;28752;48.266;7.402;2022-12-18T02:02:04;54.90;;;19.80;;
43146;SDS011;28752;48.266;7.402;2022-12-18T02:09:34;49.50;;;18.50;;
43146;SDS011;28752;48.266;7.402;2022-12-18T02:17:18;50.50;;;21.58;;
43146;SDS011;28752;48.266;7.402;2022-12-18T02:20:11;48.63;;;17.33;;
43146;SDS011;28752;48.266;7.402;2022-12-18T02:28:09;57.15;;;20.08;;
43146;SDS011;28752;48.266;7.402;2022-12-18T02:30:39;53.67;;;18.77;;
43146;SDS011;28752;48.266;7.402;2022-12-18T02:33:07;48.40;;;18.02;;
43146;SDS011;28752;48.266;7.402;2022-12-18T02:35:36;48.78;;;17.83;;
43146;SDS011;28752;48.266;7.402;2022-12-18T02:38:03;47.17;;;18.98;;
43146;SDS011;28752;48.266;7.402;2022-12-18T02:40:29;49.85;;;17.95;;
43146;SDS011;28752;48.266;7.402;2022-12-18T02:42:55;50.63;;;17.75;;
43146;SDS011;28752;48.266;7.402;2022-12-18T02:45:26;53.55;;;17.63;;
43146;SDS011;28752;48.266;7.402;2022-12-18T02:47:52;50.40;;;18.93;;
43146;SDS011;28752;48.266;7.402;2022-12-18T02:53:17;52.33;;;18.63;;
43146;SDS011;28752;48.266;7.402;2022-12-18T02:55:55;53.45;;;19.27;;
43146;SDS011;28752;48.266;7.402;2022-12-18T02:58:39;48.35;;;19.58;;
43146;SDS011;28752;48.266;7.402;2022-12-18T03:01:30;54.83;;;20.02;;
43146;SDS011;28752;48.266;7.402;2022-12-18T03:04:07;44.13;;;18.92;;
43146;SDS011;28752;48.266;7.402;2022-12-18T03:06:55;43.90;;;17.58;;
43146;SDS011;28752;48.266;7.402;2022-12-18T03:09:28;50.97;;;19.98;;
43146;SDS011;28752;48.266;7.402;2022-12-18T03:12:40;50.38;;;19.90;;
43146;SDS011;28752;48.266;7.402;2022-12-18T03:14:57;46.20;;;18.95;;
43146;SDS011;28752;48.266;7.402;2022-12-18T03:17:29;49.00;;;19.30;;
43146;SDS011;28752;48.266;7.402;2022-12-18T03:19:58;42.22;;;19.50;;
43146;SDS011;28752;48.266;7.402;2022-12-18T03:22:28;46.08;;;19.58;;
43146;SDS011;28752;48.266;7.402;2022-12-18T03:24:57;46.20;;;20.05;;
43146;SDS011;28752;48.266;7.402;2022-12-18T03:27:25;49.55;;;19.45;;
43146;SDS011;28752;48.266;7.402;2022-12-18T03:29:58;48.10;;;19.00;;
43146;SDS011;28752;48.266;7.402;2022-12-18T03:32:33;54.97;;;22.98;;
43146;SDS011;28752;48.266;7.402;2022-12-18T03:35:24;47.30;;;18.90;;
43146;SDS011;28752;48.266;7.402;2022-12-18T03:37:54;45.17;;;17.58;;
43146;SDS011;28752;48.266;7.402;2022-12-18T03:40:21;43.08;;;16.40;;
43146;SDS011;28752;48.266;7.402;2022-12-18T03:42:59;43.67;;;17.92;;
43146;SDS011;28752;48.266;7.402;2022-12-18T03:45:34;46.45;;;17.65;;
43146;SDS011;28752;48.266;7.402;2022-12-18T03:48:06;44.88;;;16.50;;
43146;SDS011;28752;48.266;7.402;2022-12-18T03:50:48;46.60;;;18.10;;
43146;SDS011;28752;48.266;7.402;2022-12-18T03:53:28;45.30;;;17.52;;
43146;SDS011;28752;48.266;7.402;2022-12-18T03:56:03;44.97;;;17.08;;
43146;SDS011;28752;48.266;7.402;2022-12-18T03:58:30;45.83;;;17.08;;
43146;SDS011;28752;48.266;7.402;2022-12-18T04:01:00;45.22;;;16.52;;
43146;SDS011;28752;48.266;7.402;2022-12-18T04:03:28;41.35;;;15.52;;
43146;SDS011;28752;48.266;7.402;2022-12-18T04:05:56;39.05;;;15.07;;
43146;SDS011;28752;48.266;7.402;2022-12-18T04:08:24;44.38;;;16.70;;
43146;SDS011;28752;48.266;7.402;2022-12-18T04:10:51;44.45;;;17.10;;
43146;SDS011;28752;48.266;7.402;2022-12-18T04:13:29;38.13;;;16.17;;
43146;SDS011;28752;48.266;7.402;2022-12-18T04:15:59;42.17;;;14.73;;
43146;SDS011;28752;48.266;7.402;2022-12-18T04:18:24;35.65;;;13.40;;
43146;SDS011;28752;48.266;7.402;2022-12-18T04:20:50;33.28;;;13.82;;
43146;SDS011;28752;48.266;7.402;2022-12-18T04:23:15;34.60;;;15.30;;
43146;SDS011;28752;48.266;7.402;2022-12-18T04:25:40;35.10;;;14.87;;
43146;SDS011;28752;48.266;7.402;2022-12-18T04:28:06;40.87;;;15.27;;
43146;SDS011;28752;48.266;7.402;2022-12-18T04:30:31;35.55;;;14.60;;
43146;SDS011;28752;48.266;7.402;2022-12-18T04:32:57;36.57;;;15.13;;
43146;SDS011;28752;48.266;7.402;2022-12-18T04:35:22;34.10;;;13.80;;
43146;SDS011;28752;48.266;7.402;2022-12-18T04:37:47;39.53;;;15.67;;
43146;SDS011;28752;48.266;7.402;2022-12-18T04:40:13;44.43;;;17.63;;
43146;SDS011;28752;48.266;7.402;2022-12-18T04:42:39;47.88;;;19.65;;
43146;SDS011;28752;48.266;7.402;2022-12-18T04:45:05;42.67;;;18.45;;
43146;SDS011;28752;48.266;7.402;2022-12-18T04:47:31;41.35;;;17.30;;
43146;SDS011;28752;48.266;7.402;2022-12-18T04:49:57;43.17;;;19.65;;
43146;SDS011;28752;48.266;7.402;2022-12-18T04:52:22;45.03;;;18.53;;
43146;SDS011;28752;48.266;7.402;2022-12-18T04:54:48;36.28;;;15.27;;
43146;SDS011;28752;48.266;7.402;2022-12-18T04:57:13;40.08;;;16.77;;
43146;SDS011;28752;48.266;7.402;2022-12-18T04:59:39;41.53;;;14.63;;
43146;SDS011;28752;48.266;7.402;2022-12-18T05:02:04;30.52;;;12.65;;
43146;SDS011;28752;48.266;7.402;2022-12-18T05:04:30;33.57;;;13.60;;
43146;SDS011;28752;48.266;7.402;2022-12-18T05:06:55;40.37;;;14.47;;
43146;SDS011;28752;48.266;7.402;2022-12-18T05:09:20;31.40;;;11.57;;
43146;SDS011;28752;48.266;7.402;2022-12-18T05:11:46;33.77;;;13.73;;
43146;SDS011;28752;48.266;7.402;2022-12-18T05:14:12;35.42;;;14.77;;
43146;SDS011;28752;48.266;7.402;2022-12-18T05:16:37;37.75;;;14.27;;
43146;SDS011;28752;48.266;7.402;2022-12-18T05:19:02;36.73;;;13.47;;
43146;SDS011;28752;48.266;7.402;2022-12-18T05:21:28;32.28;;;12.45;;
43146;SDS011;28752;48.266;7.402;2022-12-18T05:23:53;34.57;;;13.07;;
43146;SDS011;28752;48.266;7.402;2022-12-18T05:26:19;33.63;;;13.82;;
43146;SDS011;28752;48.266;7.402;2022-12-18T05:28:44;39.70;;;15.00;;
43146;SDS011;28752;48.266;7.402;2022-12-18T05:31:10;35.35;;;13.65;;
43146;SDS011;28752;48.266;7.402;2022-12-18T05:33:36;37.42;;;14.25;;
43146;SDS011;28752;48.266;7.402;2022-12-18T05:36:02;44.08;;;14.52;;
43146;SDS011;28752;48.266;7.402;2022-12-18T05:38:31;40.05;;;14.88;;
43146;SDS011;28752;48.266;7.402;2022-12-18T05:40:57;35.67;;;15.05;;
43146;SDS011;28752;48.266;7.402;2022-12-18T05:43:24;37.25;;;14.20;;
43146;SDS011;28752;48.266;7.402;2022-12-18T05:45:50;37.78;;;15.77;;
43146;SDS011;28752;48.266;7.402;2022-12-18T05:48:16;33.55;;;14.68;;
43146;SDS011;28752;48.266;7.402;2022-12-18T05:50:42;41.55;;;14.45;;
43146;SDS011;28752;48.266;7.402;2022-12-18T05:53:12;36.42;;;14.90;;
43146;SDS011;28752;48.266;7.402;2022-12-18T05:55:40;35.70;;;12.85;;
43146;SDS011;28752;48.266;7.402;2022-12-18T05:58:07;36.28;;;13.98;;
43146;SDS011;28752;48.266;7.402;2022-12-18T06:00:34;36.65;;;15.00;;
43146;SDS011;28752;48.266;7.402;2022-12-18T06:03:04;32.70;;;13.65;;
43146;SDS011;28752;48.266;7.402;2022-12-18T06:05:34;34.95;;;13.43;;
43146;SDS011;28752;48.266;7.402;2022-12-18T06:08:03;38.70;;;14.15;;
43146;SDS011;28752;48.266;7.402;2022-12-18T06:10:29;29.45;;;12.73;;
43146;SDS011;28752;48.266;7.402;2022-12-18T06:12:54;37.13;;;14.20;;
43146;SDS011;28752;48.266;7.402;2022-12-18T06:15:20;35.67;;;15.10;;
43146;SDS011;28752;48.266;7.402;2022-12-18T06:17:45;35.47;;;14.07;;
43146;SDS011;28752;48.266;7.402;2022-12-18T06:20:11;34.83;;;13.48;;
43146;SDS011;28752;48.266;7.402;2022-12-18T06:22:36;39.38;;;15.15;;
43146;SDS011;28752;48.266;7.402;2022-12-18T06:25:01;36.33;;;14.53;;
43146;SDS011;28752;48.266;7.402;2022-12-18T06:27:27;34.60;;;15.15;;
43146;SDS011;28752;48.266;7.402;2022-12-18T06:29:52;37.42;;;14.35;;
43146;SDS011;28752;48.266;7.402;2022-12-18T06:32:18;39.07;;;15.77;;
43146;SDS011;28752;48.266;7.402;2022-12-18T06:34:43;38.92;;;16.42;;
43146;SDS011;28752;48.266;7.402;2022-12-18T06:37:09;41.00;;;21.33;;
43146;SDS011;28752;48.266;7.402;2022-12-18T06:39:34;43.20;;;19.57;;
43146;SDS011;28752;48.266;7.402;2022-12-18T06:41:59;43.57;;;19.17;;
43146;SDS011;28752;48.266;7.402;2022-12-18T06:44:25;41.63;;;17.42;;
43146;SDS011;28752;48.266;7.402;2022-12-18T06:46:50;41.40;;;15.93;;
43146;SDS011;28752;48.266;7.402;2022-12-18T06:49:15;38.80;;;16.83;;
43146;SDS011;28752;48.266;7.402;2022-12-18T06:51:41;43.00;;;17.67;;
43146;SDS011;28752;48.266;7.402;2022-12-18T06:54:07;50.78;;;17.65;;
43146;SDS011;28752;48.266;7.402;2022-12-18T06:56:32;40.70;;;16.08;;
43146;SDS011;28752;48.266;7.402;2022-12-18T06:58:58;42.75;;;17.60;;
43146;SDS011;28752;48.266;7.402;2022-12-18T07:01:23;44.05;;;16.90;;
43146;SDS011;28752;48.266;7.402;2022-12-18T07:03:52;45.58;;;18.52;;
43146;SDS011;28752;48.266;7.402;2022-12-18T07:06:20;39.80;;;16.33;;
43146;SDS011;28752;48.266;7.402;2022-12-18T07:08:48;43.05;;;18.00;;
43146;SDS011;28752;48.266;7.402;2022-12-18T07:11:15;47.00;;;18.42;;
43146;SDS011;28752;48.266;7.402;2022-12-18T07:16:11;51.28;;;20.70;;
43146;SDS011;28752;48.266;7.402;2022-12-18T07:18:38;50.78;;;20.55;;
43146;SDS011;28752;48.266;7.402;2022-12-18T07:21:17;54.77;;;24.33;;
43146;SDS011;28752;48.266;7.402;2022-12-18T07:23:44;46.63;;;20.35;;
43146;SDS011;28752;48.266;7.402;2022-12-18T07:26:13;48.55;;;20.38;;
43146;SDS011;28752;48.266;7.402;2022-12-18T07:28:40;49.28;;;20.58;;
43146;SDS011;28752;48.266;7.402;2022-12-18T07:31:07;51.25;;;21.08;;
43146;SDS011;28752;48.266;7.402;2022-12-18T07:33:35;49.78;;;22.30;;
43146;SDS011;28752;48.266;7.402;2022-12-18T07:36:01;50.17;;;22.98;;
43146;SDS011;28752;48.266;7.402;2022-12-18T07:38:29;72.93;;;30.83;;
43146;SDS011;28752;48.266;7.402;2022-12-18T07:41:05;53.88;;;24.35;;
43146;SDS011;28752;48.266;7.402;2022-12-18T07:43:33;52.20;;;22.42;;
43146;SDS011;28752;48.266;7.402;2022-12-18T07:45:59;47.33;;;20.05;;
43146;SDS011;28752;48.266;7.402;2022-12-18T07:48:25;48.22;;;21.27;;
43146;SDS011;28752;48.266;7.402;2022-12-18T07:50:51;46.47;;;20.58;;
43146;SDS011;28752;48.266;7.402;2022-12-18T07:53:16;45.80;;;21.83;;
43146;SDS011;28752;48.266;7.402;2022-12-18T07:55:42;50.80;;;22.17;;
43146;SDS011;28752;48.266;7.402;2022-12-18T07:58:07;54.33;;;23.67;;
43146;SDS011;28752;48.266;7.402;2022-12-18T08:00:34;58.80;;;25.70;;
43146;SDS011;28752;48.266;7.402;2022-12-18T08:05:25;44.03;;;20.10;;
43146;SDS011;28752;48.266;7.402;2022-12-18T08:07:51;54.28;;;21.38;;
43146;SDS011;28752;48.266;7.402;2022-12-18T08:10:17;53.80;;;20.55;;
43146;SDS011;28752;48.266;7.402;2022-12-18T08:12:42;54.53;;;21.27;;
43146;SDS011;28752;48.266;7.402;2022-12-18T08:15:08;50.17;;;21.17;;
43146;SDS011;28752;48.266;7.402;2022-12-18T08:17:33;55.95;;;22.08;;
43146;SDS011;28752;48.266;7.402;2022-12-18T08:19:59;60.35;;;25.55;;
43146;SDS011;28752;48.266;7.402;2022-12-18T08:22:24;59.33;;;23.40;;
43146;SDS011;28752;48.266;7.402;2022-12-18T08:24:50;57.03;;;22.05;;
43146;SDS011;28752;48.266;7.402;2022-12-18T08:27:15;56.25;;;23.40;;
43146;SDS011;28752;48.266;7.402;2022-12-18T08:29:41;61.15;;;24.98;;
43146;SDS011;28752;48.266;7.402;2022-12-18T08:32:06;54.95;;;23.35;;
43146;SDS011;28752;48.266;7.402;2022-12-18T08:34:32;66.70;;;27.10;;
43146;SDS011;28752;48.266;7.402;2022-12-18T08:36:57;77.60;;;30.63;;
43146;SDS011;28752;48.266;7.402;2022-12-18T08:39:22;57.13;;;24.20;;
43146;SDS011;28752;48.266;7.402;2022-12-18T08:41:48;63.85;;;24.50;;
43146;SDS011;28752;48.266;7.402;2022-12-18T08:44:33;55.47;;;24.52;;
43146;SDS011;28752;48.266;7.402;2022-12-18T08:47:05;58.17;;;24.23;;
43146;SDS011;28752;48.266;7.402;2022-12-18T08:49:31;58.00;;;22.88;;
43146;SDS011;28752;48.266;7.402;2022-12-18T08:51:57;58.22;;;23.70;;
43146;SDS011;28752;48.266;7.402;2022-12-18T08:54:22;62.83;;;25.17;;
43146;SDS011;28752;48.266;7.402;2022-12-18T08:56:49;58.22;;;24.50;;
43146;SDS011;28752;48.266;7.402;2022-12-18T08:59:15;74.95;;;32.70;;
43146;SDS011;28752;48.266;7.402;2022-12-18T09:01:41;62.20;;;27.52;;
43146;SDS011;28752;48.266;7.402;2022-12-18T09:04:07;77.65;;;32.92;;
43146;SDS011;28752;48.266;7.402;2022-12-18T09:06:34;63.72;;;26.08;;
43146;SDS011;28752;48.266;7.402;2022-12-18T09:09:00;64.80;;;26.88;;
43146;SDS011;28752;48.266;7.402;2022-12-18T09:11:26;64.35;;;27.95;;
43146;SDS011;28752;48.266;7.402;2022-12-18T09:13:53;65.15;;;26.30;;
43146;SDS011;28752;48.266;7.402;2022-12-18T09:16:20;64.68;;;28.38;;
43146;SDS011;28752;48.266;7.402;2022-12-18T09:18:46;74.57;;;30.77;;
43146;SDS011;28752;48.266;7.402;2022-12-18T09:21:16;84.35;;;37.60;;
43146;SDS011;28752;48.266;7.402;2022-12-18T09:23:43;69.68;;;30.00;;
43146;SDS011;28752;48.266;7.402;2022-12-18T09:26:08;82.18;;;31.90;;
43146;SDS011;28752;48.266;7.402;2022-12-18T09:28:34;71.82;;;31.15;;
43146;SDS011;28752;48.266;7.402;2022-12-18T09:31:03;69.13;;;29.55;;
43146;SDS011;28752;48.266;7.402;2022-12-18T09:33:31;69.63;;;28.60;;
43146;SDS011;28752;48.266;7.402;2022-12-18T09:35:56;66.20;;;27.17;;
43146;SDS011;28752;48.266;7.402;2022-12-18T09:38:22;71.20;;;22.50;;
43146;SDS011;28752;48.266;7.402;2022-12-18T09:40:49;68.32;;;23.95;;
43146;SDS011;28752;48.266;7.402;2022-12-18T09:43:19;68.68;;;28.13;;
43146;SDS011;28752;48.266;7.402;2022-12-18T09:45:53;63.15;;;23.73;;
43146;SDS011;28752;48.266;7.402;2022-12-18T09:48:23;70.75;;;26.33;;
43146;SDS011;28752;48.266;7.402;2022-12-18T09:50:54;61.25;;;23.85;;
43146;SDS011;28752;48.266;7.402;2022-12-18T09:53:27;73.38;;;22.60;;
43146;SDS011;28752;48.266;7.402;2022-12-18T09:55:57;65.70;;;24.33;;
43146;SDS011;28752;48.266;7.402;2022-12-18T10:00:57;60.78;;;27.65;;
43146;SDS011;28752;48.266;7.402;2022-12-18T10:03:22;64.20;;;26.20;;
43146;SDS011;28752;48.266;7.402;2022-12-18T10:05:52;60.58;;;25.83;;
43146;SDS011;28752;48.266;7.402;2022-12-18T10:08:38;63.92;;;27.80;;
43146;SDS011;28752;48.266;7.402;2022-12-18T10:11:51;63.28;;;25.95;;
43146;SDS011;28752;48.266;7.402;2022-12-18T10:14:36;58.75;;;24.10;;
43146;SDS011;28752;48.266;7.402;2022-12-18T10:22:59;51.65;;;19.73;;
43146;SDS011;28752;48.266;7.402;2022-12-18T10:26:02;49.08;;;19.60;;
43146;SDS011;28752;48.266;7.402;2022-12-18T10:28:38;51.25;;;19.58;;
43146;SDS011;28752;48.266;7.402;2022-12-18T10:31:05;59.00;;;22.77;;
43146;SDS011;28752;48.266;7.402;2022-12-18T10:33:42;64.28;;;22.42;;
43146;SDS011;28752;48.266;7.402;2022-12-18T10:36:07;58.15;;;22.42;;
43146;SDS011;28752;48.266;7.402;2022-12-18T10:38:34;57.97;;;22.48;;
43146;SDS011;28752;48.266;7.402;2022-12-18T10:41:08;64.55;;;23.05;;
43146;SDS011;28752;48.266;7.402;2022-12-18T10:46:43;60.03;;;22.08;;
43146;SDS011;28752;48.266;7.402;2022-12-18T10:49:21;55.80;;;21.50;;
43146;SDS011;28752;48.266;7.402;2022-12-18T10:52:30;54.13;;;22.30;;
43146;SDS011;28752;48.266;7.402;2022-12-18T10:54:51;56.03;;;21.92;;
43146;SDS011;28752;48.266;7.402;2022-12-18T10:59:52;62.33;;;21.33;;
43146;SDS011;28752;48.266;7.402;2022-12-18T11:02:35;62.40;;;22.13;;
43146;SDS011;28752;48.266;7.402;2022-12-18T11:05:03;56.92;;;21.85;;
43146;SDS011;28752;48.266;7.402;2022-12-18T11:10:20;63.47;;;21.63;;
43146;SDS011;28752;48.266;7.402;2022-12-18T11:12:47;69.50;;;23.10;;
43146;SDS011;28752;48.266;7.402;2022-12-18T11:15:15;62.05;;;23.38;;
43146;SDS011;28752;48.266;7.402;2022-12-18T11:17:50;65.28;;;23.85;;
43146;SDS011;28752;48.266;7.402;2022-12-18T11:20:29;65.53;;;24.17;;
43146;SDS011;28752;48.266;7.402;2022-12-18T11:23:00;56.25;;;21.45;;
43146;SDS011;28752;48.266;7.402;2022-12-18T11:25:27;55.78;;;22.73;;
43146;SDS011;28752;48.266;7.402;2022-12-18T11:30:30;58.50;;;21.73;;
43146;SDS011;28752;48.266;7.402;2022-12-18T11:41:38;66.65;;;23.08;;
43146;SDS011;28752;48.266;7.402;2022-12-18T11:44:14;54.28;;;22.60;;
43146;SDS011;28752;48.266;7.402;2022-12-18T11:49:51;55.35;;;21.25;;
43146;SDS011;28752;48.266;7.402;2022-12-18T11:52:21;59.70;;;23.10;;
43146;SDS011;28752;48.266;7.402;2022-12-18T11:57:52;67.80;;;24.40;;
43146;SDS011;28752;48.266;7.402;2022-12-18T12:00:35;63.88;;;22.77;;
43146;SDS011;28752;48.266;7.402;2022-12-18T12:06:07;56.70;;;23.30;;
43146;SDS011;28752;48.266;7.402;2022-12-18T12:17:31;57.80;;;23.02;;
43146;SDS011;28752;48.266;7.402;2022-12-18T12:22:58;58.80;;;23.55;;
43146;SDS011;28752;48.266;7.402;2022-12-18T12:39:22;58.35;;;23.42;;
43146;SDS011;28752;48.266;7.402;2022-12-18T12:41:53;61.17;;;24.15;;
43146;SDS011;28752;48.266;7.402;2022-12-18T12:44:39;62.13;;;24.83;;
43146;SDS011;28752;48.266;7.402;2022-12-18T12:47:22;63.25;;;23.85;;
43146;SDS011;28752;48.266;7.402;2022-12-18T12:49:52;56.42;;;21.92;;
43146;SDS011;28752;48.266;7.402;2022-12-18T12:54:58;56.45;;;23.55;;
43146;SDS011;28752;48.266;7.402;2022-12-18T13:00:09;91.53;;;38.63;;
43146;SDS011;28752;48.266;7.402;2022-12-18T13:02:45;64.22;;;26.02;;
43146;SDS011;28752;48.266;7.402;2022-12-18T13:05:29;56.92;;;23.45;;
43146;SDS011;28752;48.266;7.402;2022-12-18T13:10:32;57.33;;;22.67;;
43146;SDS011;28752;48.266;7.402;2022-12-18T13:13:05;52.58;;;21.25;;
43146;SDS011;28752;48.266;7.402;2022-12-18T13:25:49;56.00;;;23.30;;
43146;SDS011;28752;48.266;7.402;2022-12-18T13:28:16;57.63;;;23.65;;
43146;SDS011;28752;48.266;7.402;2022-12-18T13:43:47;61.90;;;25.00;;
43146;SDS011;28752;48.266;7.402;2022-12-18T13:51:27;66.82;;;25.30;;
43146;SDS011;28752;48.266;7.402;2022-12-18T13:56:49;59.05;;;22.80;;
43146;SDS011;28752;48.266;7.402;2022-12-18T14:01:47;59.45;;;23.17;;
43146;SDS011;28752;48.266;7.402;2022-12-18T14:06:53;64.32;;;25.13;;
43146;SDS011;28752;48.266;7.402;2022-12-18T14:09:26;73.43;;;31.98;;
43146;SDS011;28752;48.266;7.402;2022-12-18T14:11:54;81.57;;;33.08;;
43146;SDS011;28752;48.266;7.402;2022-12-18T14:14:47;76.50;;;28.80;;
43146;SDS011;28752;48.266;7.402;2022-12-18T14:19:42;76.72;;;26.65;;
43146;SDS011;28752;48.266;7.402;2022-12-18T14:22:15;71.75;;;26.75;;
43146;SDS011;28752;48.266;7.402;2022-12-18T14:24:45;73.32;;;26.02;;
43146;SDS011;28752;48.266;7.402;2022-12-18T14:27:21;81.25;;;28.98;;
43146;SDS011;28752;48.266;7.402;2022-12-18T14:29:48;76.88;;;27.83;;
43146;SDS011;28752;48.266;7.402;2022-12-18T14:32:15;77.13;;;27.95;;
43146;SDS011;28752;48.266;7.402;2022-12-18T14:34:45;70.00;;;27.23;;
43146;SDS011;28752;48.266;7.402;2022-12-18T14:37:16;63.38;;;25.70;;
43146;SDS011;28752;48.266;7.402;2022-12-18T14:39:54;65.93;;;25.75;;
43146;SDS011;28752;48.266;7.402;2022-12-18T14:42:21;74.95;;;29.48;;
43146;SDS011;28752;48.266;7.402;2022-12-18T14:44:47;69.77;;;26.33;;
43146;SDS011;28752;48.266;7.402;2022-12-18T14:47:15;87.87;;;33.77;;
43146;SDS011;28752;48.266;7.402;2022-12-18T14:49:41;76.20;;;28.10;;
43146;SDS011;28752;48.266;7.402;2022-12-18T14:52:40;77.22;;;28.23;;
43146;SDS011;28752;48.266;7.402;2022-12-18T14:54:59;64.97;;;24.77;;
43146;SDS011;28752;48.266;7.402;2022-12-18T14:57:25;73.80;;;27.07;;
43146;SDS011;28752;48.266;7.402;2022-12-18T15:00:03;67.35;;;25.95;;
43146;SDS011;28752;48.266;7.402;2022-12-18T15:02:31;74.40;;;26.42;;
43146;SDS011;28752;48.266;7.402;2022-12-18T15:05:02;70.55;;;27.00;;
43146;SDS011;28752;48.266;7.402;2022-12-18T15:07:46;74.72;;;28.98;;
43146;SDS011;28752;48.266;7.402;2022-12-18T15:25:55;76.22;;;27.35;;
43146;SDS011;28752;48.266;7.402;2022-12-18T15:31:02;65.68;;;25.27;;
43146;SDS011;28752;48.266;7.402;2022-12-18T15:33:41;64.80;;;23.92;;
43146;SDS011;28752;48.266;7.402;2022-12-18T15:36:12;71.18;;;24.98;;
43146;SDS011;28752;48.266;7.402;2022-12-18T15:38:39;67.95;;;26.95;;
43146;SDS011;28752;48.266;7.402;2022-12-18T15:41:05;62.58;;;24.00;;
43146;SDS011;28752;48.266;7.402;2022-12-18T15:43:30;54.90;;;22.60;;
43146;SDS011;28752;48.266;7.402;2022-12-18T15:46:20;63.13;;;25.00;;
43146;SDS011;28752;48.266;7.402;2022-12-18T15:48:53;63.90;;;24.50;;
43146;SDS011;28752;48.266;7.402;2022-12-18T15:51:24;59.47;;;22.88;;
43146;SDS011;28752;48.266;7.402;2022-12-18T15:53:56;66.28;;;25.48;;
43146;SDS011;28752;48.266;7.402;2022-12-18T15:56:24;66.90;;;26.25;;
43146;SDS011;28752;48.266;7.402;2022-12-18T15:59:10;69.05;;;26.52;;
43146;SDS011;28752;48.266;7.402;2022-12-18T16:01:37;74.35;;;29.10;;
43146;SDS011;28752;48.266;7.402;2022-12-18T16:04:03;68.85;;;26.95;;
43146;SDS011;28752;48.266;7.402;2022-12-18T16:06:28;72.03;;;28.07;;
43146;SDS011;28752;48.266;7.402;2022-12-18T16:08:54;63.07;;;26.53;;
43146;SDS011;28752;48.266;7.402;2022-12-18T16:11:27;69.90;;;27.60;;
43146;SDS011;28752;48.266;7.402;2022-12-18T16:16:58;66.95;;;27.08;;
43146;SDS011;28752;48.266;7.402;2022-12-18T16:19:25;68.03;;;27.52;;
43146;SDS011;28752;48.266;7.402;2022-12-18T16:21:51;65.07;;;24.63;;
43146;SDS011;28752;48.266;7.402;2022-12-18T16:24:20;68.68;;;26.23;;
43146;SDS011;28752;48.266;7.402;2022-12-18T16:26:48;64.05;;;25.35;;
43146;SDS011;28752;48.266;7.402;2022-12-18T16:29:14;69.03;;;25.90;;
43146;SDS011;28752;48.266;7.402;2022-12-18T16:31:39;60.63;;;24.77;;
43146;SDS011;28752;48.266;7.402;2022-12-18T16:34:17;73.72;;;26.65;;
43146;SDS011;28752;48.266;7.402;2022-12-18T16:36:53;120.72;;;48.30;;
43146;SDS011;28752;48.266;7.402;2022-12-18T16:39:20;80.25;;;31.15;;
43146;SDS011;28752;48.266;7.402;2022-12-18T16:41:46;73.70;;;27.30;;
43146;SDS011;28752;48.266;7.402;2022-12-18T16:44:12;73.05;;;26.95;;
43146;SDS011;28752;48.266;7.402;2022-12-18T16:46:38;73.65;;;26.23;;
43146;SDS011;28752;48.266;7.402;2022-12-18T16:53:55;84.17;;;28.33;;
43146;SDS011;28752;48.266;7.402;2022-12-18T16:56:20;95.57;;;31.90;;
43146;SDS011;28752;48.266;7.402;2022-12-18T16:58:53;91.80;;;31.40;;
43146;SDS011;28752;48.266;7.402;2022-12-18T17:01:22;98.05;;;33.13;;
43146;SDS011;28752;48.266;7.402;2022-12-18T17:03:55;86.43;;;30.40;;
43146;SDS011;28752;48.266;7.402;2022-12-18T17:06:23;87.45;;;30.92;;
43146;SDS011;28752;48.266;7.402;2022-12-18T17:08:56;89.85;;;29.90;;
43146;SDS011;28752;48.266;7.402;2022-12-18T17:11:24;80.90;;;29.45;;
43146;SDS011;28752;48.266;7.402;2022-12-18T17:13:50;75.60;;;27.83;;
43146;SDS011;28752;48.266;7.402;2022-12-18T17:16:16;85.63;;;29.58;;
43146;SDS011;28752;48.266;7.402;2022-12-18T17:18:41;89.63;;;28.63;;